Time;durP1;ratioP1;P1;durP2;ratioP2;P2;SDS_P1;SDS_P2;PMS_P1;PMS_P2;Temp;Humidity;BMP_temperature;BMP_pressure;BME280_temperature;BME280_humidity;BME280_pressure;Samples;Min_cycle;Max_cycle;Signal;HPM_P1;HPM_P2
2024/01/22 00:02:11;;;;;;;5.30;3.22;;;7.50;99.90;;;;;;5027899;28;20389;-65
2024/01/22 00:04:37;;;;;;;8.63;3.70;;;7.50;99.90;;;;;;5029512;28;20033;-65
2024/01/22 00:07:03;;;;;;;10.00;3.10;;;7.60;99.90;;;;;;5024452;28;20440;-65
2024/01/22 00:09:28;;;;;;;6.80;4.03;;;7.70;99.90;;;;;;5029705;28;20308;-65
2024/01/22 00:11:54;;;;;;;6.67;3.20;;;7.70;99.90;;;;;;5029358;28;20415;-64
2024/01/22 00:14:20;;;;;;;7.90;3.40;;;7.70;99.90;;;;;;5028882;28;20049;-65
2024/01/22 00:16:45;;;;;;;5.40;3.10;;;7.70;99.90;;;;;;5029892;28;20041;-64
2024/01/22 00:19:11;;;;;;;7.03;3.17;;;7.70;99.90;;;;;;5046988;28;20511;-65
2024/01/22 00:21:41;;;;;;;5.20;3.40;;;7.70;99.90;;;;;;5049652;28;20044;-65
2024/01/22 00:24:07;;;;;;;5.53;3.72;;;7.80;99.90;;;;;;5048792;28;20048;-65
2024/01/22 00:26:33;;;;;;;7.88;3.25;;;7.80;99.90;;;;;;5046412;28;20124;-64
2024/01/22 00:28:59;;;;;;;7.27;2.73;;;7.90;99.90;;;;;;5031052;28;20060;-65
2024/01/22 00:31:24;;;;;;;8.30;2.97;;;7.90;99.90;;;;;;5029677;28;20064;-65
2024/01/22 00:33:50;;;;;;;6.07;2.77;;;7.90;99.90;;;;;;5029012;28;20299;-65
2024/01/22 00:36:15;;;;;;;7.67;3.20;;;8.00;99.90;;;;;;5028401;28;21101;-64
2024/01/22 00:38:41;;;;;;;4.80;2.88;;;7.90;99.90;;;;;;5029779;28;20099;-64
2024/01/22 00:41:07;;;;;;;7.43;2.95;;;7.90;99.90;;;;;;5028446;28;20029;-64
2024/01/22 00:43:33;;;;;;;4.60;3.35;;;7.90;99.90;;;;;;5028548;28;20260;-64
2024/01/22 00:46:01;;;;;;;5.78;2.67;;;8.00;99.90;;;;;;5028660;28;20030;-65
2024/01/22 00:48:26;;;;;;;3.17;2.58;;;8.00;99.90;;;;;;5025134;28;20045;-65
2024/01/22 00:50:52;;;;;;;5.10;2.40;;;8.00;99.90;;;;;;5028965;28;20033;-65
2024/01/22 00:53:17;;;;;;;10.90;2.10;;;8.00;99.90;;;;;;5028648;28;20037;-65
2024/01/22 00:55:43;;;;;;;5.30;2.37;;;8.00;99.90;;;;;;5028560;28;20296;-65
2024/01/22 00:58:09;;;;;;;9.10;2.47;;;8.10;99.90;;;;;;5028204;28;20044;-65
2024/01/22 01:00:34;;;;;;;3.07;1.80;;;8.10;99.90;;;;;;5028726;28;20083;-65
2024/01/22 01:03:00;;;;;;;3.13;2.90;;;8.20;99.90;;;;;;5027221;28;20038;-65
2024/01/22 01:05:25;;;;;;;3.60;1.70;;;8.20;99.90;;;;;;5027024;28;20049;-65
2024/01/22 01:07:51;;;;;;;6.40;2.60;;;8.20;99.90;;;;;;5009302;28;20048;-65
2024/01/22 01:10:16;;;;;;;4.70;2.37;;;8.20;99.90;;;;;;5028362;28;20046;-64
2024/01/22 01:12:42;;;;;;;5.93;2.57;;;8.20;99.90;;;;;;5028083;28;20033;-65
2024/01/22 01:15:09;;;;;;;6.90;2.00;;;8.20;99.90;;;;;;5028380;28;20037;-65
2024/01/22 01:17:36;;;;;;;4.85;1.98;;;8.20;99.90;;;;;;5026374;28;20069;-65
2024/01/22 01:20:03;;;;;;;4.45;2.50;;;8.20;99.90;;;;;;5028781;28;20038;-65
2024/01/22 01:22:29;;;;;;;4.55;2.35;;;8.20;99.90;;;;;;5026984;28;20155;-64
2024/01/22 01:24:55;;;;;;;4.25;1.98;;;8.20;99.90;;;;;;5028239;28;20095;-65
2024/01/22 01:27:21;;;;;;;6.53;2.28;;;8.20;99.90;;;;;;5027875;28;20050;-65
2024/01/22 01:29:47;;;;;;;6.07;3.33;;;8.20;99.90;;;;;;5028842;28;20490;-65
2024/01/22 01:32:12;;;;;;;5.38;2.03;;;8.30;99.90;;;;;;5027885;28;20041;-65
2024/01/22 01:34:38;;;;;;;4.00;2.40;;;8.30;99.90;;;;;;5027855;28;20046;-65
2024/01/22 01:37:04;;;;;;;5.67;2.17;;;8.40;99.90;;;;;;5026649;28;20045;-65
2024/01/22 01:39:30;;;;;;;3.28;2.00;;;8.50;99.90;;;;;;5028138;28;20265;-65
2024/01/22 01:41:55;;;;;;;4.30;1.85;;;8.50;99.90;;;;;;5021135;28;20114;-65
2024/01/22 01:44:49;;;;;;;3.23;2.07;;;8.50;99.90;;;;;;5027946;28;20063;-65
2024/01/22 01:47:15;;;;;;;6.00;2.53;;;8.60;99.90;;;;;;5026983;28;20349;-65
2024/01/22 01:49:41;;;;;;;3.65;2.28;;;8.60;99.90;;;;;;5028437;28;20120;-65
2024/01/22 01:52:06;;;;;;;3.63;2.15;;;8.70;99.90;;;;;;5027900;28;20038;-65
2024/01/22 01:54:32;;;;;;;2.88;1.70;;;8.60;99.90;;;;;;5027718;28;20056;-65
2024/01/22 01:56:58;;;;;;;5.40;2.35;;;8.70;99.90;;;;;;5028227;28;20427;-65
2024/01/22 01:59:24;;;;;;;7.15;2.35;;;8.70;99.90;;;;;;5019931;28;20044;-65
2024/01/22 02:01:50;;;;;;;4.43;2.17;;;8.70;99.90;;;;;;5031910;28;20504;-65
2024/01/22 02:04:16;;;;;;;6.97;2.97;;;8.80;99.90;;;;;;5031422;28;20068;-65
2024/01/22 02:06:41;;;;;;;2.53;2.30;;;8.80;99.90;;;;;;5031607;28;20041;-64
2024/01/22 02:09:07;;;;;;;3.70;1.85;;;8.70;99.90;;;;;;5031601;28;20320;-65
2024/01/22 02:11:32;;;;;;;3.13;1.60;;;8.80;99.90;;;;;;5032176;28;20377;-65
2024/01/22 02:13:58;;;;;;;6.13;2.30;;;8.70;99.90;;;;;;5030421;28;20037;-65
2024/01/22 02:16:24;;;;;;;4.53;2.40;;;8.80;99.90;;;;;;5033217;28;20492;-65
2024/01/22 02:18:49;;;;;;;4.10;2.17;;;8.80;99.90;;;;;;5032296;28;20044;-65
2024/01/22 02:21:15;;;;;;;3.33;2.67;;;8.80;99.90;;;;;;5030889;28;20272;-65
2024/01/22 02:23:41;;;;;;;4.20;2.30;;;8.80;99.90;;;;;;5031878;28;20038;-65
2024/01/22 02:26:06;;;;;;;4.03;2.23;;;8.80;99.90;;;;;;5031137;28;20044;-65
2024/01/22 02:28:32;;;;;;;4.40;1.77;;;8.80;99.90;;;;;;5031727;28;20833;-65
2024/01/22 02:30:59;;;;;;;6.30;2.40;;;8.80;99.90;;;;;;5026817;28;20503;-65
2024/01/22 02:33:24;;;;;;;;;;;8.80;99.90;;;;;;5031734;28;20076;-65
2024/01/22 02:35:50;;;;;;;2.78;2.08;;;8.80;99.90;;;;;;5029428;28;19960;-65
2024/01/22 02:38:16;;;;;;;1.35;1.20;;;8.80;99.90;;;;;;5030497;28;20041;-65
2024/01/22 02:40:41;;;;;;;4.97;1.83;;;8.70;99.90;;;;;;5031401;28;20335;-66
2024/01/22 02:43:07;;;;;;;6.80;1.92;;;8.80;99.90;;;;;;5029371;28;20447;-65
2024/01/22 02:45:32;;;;;;;5.13;1.70;;;8.80;99.90;;;;;;5030881;28;20072;-65
2024/01/22 02:47:58;;;;;;;4.57;2.60;;;8.80;99.90;;;;;;5026653;28;20038;-65
2024/01/22 02:50:24;;;;;;;5.33;2.17;;;8.80;99.90;;;;;;5030334;28;20423;-65
2024/01/22 02:52:50;;;;;;;4.50;1.97;;;8.80;99.90;;;;;;5041261;28;20474;-65
2024/01/22 02:55:16;;;;;;;3.92;2.05;;;8.90;99.90;;;;;;5028843;28;20038;-65
2024/01/22 02:57:41;;;;;;;4.22;1.90;;;8.80;99.90;;;;;;5029460;28;20044;-65
2024/01/22 03:00:07;;;;;;;3.55;1.65;;;8.80;99.90;;;;;;5029099;28;20037;-65
2024/01/22 03:02:33;;;;;;;2.55;1.67;;;8.90;99.90;;;;;;5035341;28;20215;-65
2024/01/22 03:04:58;;;;;;;3.73;1.60;;;8.90;99.90;;;;;;5041560;28;20033;-65
2024/01/22 03:07:24;;;;;;;4.40;1.47;;;8.90;99.90;;;;;;5030963;28;20064;-65
2024/01/22 03:09:50;;;;;;;4.43;1.93;;;8.90;99.90;;;;;;5030737;28;20041;-65
2024/01/22 03:12:15;;;;;;;3.37;2.23;;;8.90;99.90;;;;;;5027279;28;20049;-65
2024/01/22 03:14:41;;;;;;;5.55;1.92;;;8.90;99.90;;;;;;5029010;28;20292;-65
2024/01/22 03:17:07;;;;;;;3.40;1.70;;;8.90;99.90;;;;;;5031111;28;20037;-65
2024/01/22 03:19:32;;;;;;;4.45;1.70;;;8.90;99.90;;;;;;5029071;28;20113;-65
2024/01/22 03:21:58;;;;;;;3.77;1.83;;;8.90;99.90;;;;;;5026556;28;20042;-65
2024/01/22 03:24:23;;;;;;;3.37;1.73;;;8.90;99.90;;;;;;5033586;28;20136;-65
2024/01/22 03:26:49;;;;;;;3.27;1.50;;;8.80;99.90;;;;;;5050928;28;20117;-65
2024/01/22 03:29:14;;;;;;;2.57;2.20;;;8.80;99.90;;;;;;5035732;28;20160;-64
2024/01/22 03:31:40;;;;;;;4.93;2.17;;;8.80;99.90;;;;;;5034298;28;20377;-64
2024/01/22 03:34:06;;;;;;;3.67;1.83;;;8.80;99.90;;;;;;5029915;28;20069;-64
2024/01/22 03:36:31;;;;;;;2.50;1.73;;;8.80;99.90;;;;;;5041826;28;20318;-64
2024/01/22 03:38:57;;;;;;;2.30;1.67;;;8.80;99.90;;;;;;5029835;28;20055;-64
2024/01/22 03:41:22;;;;;;;6.95;2.17;;;8.80;99.90;;;;;;5030290;28;20037;-64
2024/01/22 03:43:48;;;;;;;6.17;2.77;;;8.80;99.90;;;;;;5029616;28;20045;-65
2024/01/22 03:46:14;;;;;;;2.40;1.93;;;8.70;99.90;;;;;;5029664;28;20272;-65
2024/01/22 03:48:41;;;;;;;4.07;1.73;;;8.70;99.90;;;;;;5028359;28;20055;-65
2024/01/22 03:51:06;;;;;;;3.75;1.40;;;8.70;99.90;;;;;;5029597;28;20033;-65
2024/01/22 03:53:32;;;;;;;2.55;2.13;;;8.70;99.90;;;;;;5029264;28;20044;-65
2024/01/22 03:55:58;;;;;;;5.93;2.22;;;8.60;99.90;;;;;;5025205;28;20042;-65
2024/01/22 03:58:24;;;;;;;3.65;1.65;;;8.70;99.90;;;;;;5025291;28;20049;-65
2024/01/22 04:00:50;;;;;;;2.22;1.75;;;8.70;99.90;;;;;;5025968;28;20033;-65
2024/01/22 04:03:15;;;;;;;4.33;2.27;;;8.70;99.90;;;;;;5028422;28;20424;-65
2024/01/22 04:05:44;;;;;;;5.70;1.97;;;8.70;99.90;;;;;;5026360;28;20277;-65
2024/01/22 04:08:09;;;;;;;3.38;1.95;;;8.70;99.90;;;;;;5027464;28;20075;-65
2024/01/22 04:10:35;;;;;;;3.97;2.00;;;8.70;99.90;;;;;;5030024;28;20261;-65
2024/01/22 04:13:00;;;;;;;4.27;1.77;;;8.70;99.90;;;;;;5028839;28;20473;-65
2024/01/22 04:15:26;;;;;;;1.97;1.33;;;8.80;99.90;;;;;;5033662;28;20044;-65
2024/01/22 04:17:52;;;;;;;4.80;2.40;;;8.70;99.90;;;;;;5032424;28;20646;-65
2024/01/22 04:20:17;;;;;;;1.93;1.73;;;8.70;99.90;;;;;;5033630;28;20609;-65
2024/01/22 04:22:43;;;;;;;2.78;1.73;;;8.70;99.90;;;;;;5028210;28;20272;-66
2024/01/22 04:25:09;;;;;;;2.87;1.60;;;8.70;99.90;;;;;;5028511;28;20079;-65
2024/01/22 04:27:34;;;;;;;3.22;2.05;;;8.70;99.90;;;;;;5029257;28;20048;-64
2024/01/22 04:30:00;;;;;;;11.50;2.23;;;8.70;99.90;;;;;;5029025;28;20115;-64
2024/01/22 04:32:26;;;;;;;2.00;1.60;;;8.70;99.90;;;;;;5027440;28;20048;-65
2024/01/22 04:34:52;;;;;;;4.30;2.03;;;8.70;99.90;;;;;;5028940;28;20562;-65
2024/01/22 04:37:17;;;;;;;4.63;1.88;;;8.80;99.90;;;;;;5028574;28;20049;-64
2024/01/22 04:39:43;;;;;;;2.50;2.25;;;8.80;99.90;;;;;;5029263;28;20087;-64
2024/01/22 04:42:18;;;;;;;6.23;2.60;;;8.80;99.90;;;;;;5028527;28;20060;-65
2024/01/22 04:44:43;;;;;;;2.47;2.00;;;8.80;99.90;;;;;;5028905;28;20291;-65
2024/01/22 04:47:09;;;;;;;2.70;1.65;;;8.80;99.90;;;;;;5028032;28;20046;-65
2024/01/22 04:49:35;;;;;;;2.90;1.53;;;8.80;99.90;;;;;;5041700;28;20045;-64
2024/01/22 04:52:00;;;;;;;3.33;1.53;;;8.90;99.90;;;;;;5028512;28;20632;-64
2024/01/22 04:54:26;;;;;;;3.13;1.67;;;8.90;99.90;;;;;;5040044;28;20048;-64
2024/01/22 04:56:54;;;;;;;1.83;1.50;;;8.90;99.90;;;;;;5035638;28;20272;-64
2024/01/22 04:59:20;;;;;;;2.63;1.25;;;9.00;99.90;;;;;;5028703;28;20109;-64
2024/01/22 05:01:45;;;;;;;2.25;1.27;;;9.00;99.90;;;;;;5027091;28;20132;-65
2024/01/22 05:04:11;;;;;;;1.88;1.40;;;9.10;99.90;;;;;;5028464;28;20043;-64
2024/01/22 05:06:37;;;;;;;1.57;1.20;;;9.10;99.90;;;;;;5026844;28;20057;-64
2024/01/22 05:09:04;;;;;;;1.35;0.77;;;9.20;99.90;;;;;;5028223;28;20363;-64
2024/01/22 05:11:30;;;;;;;1.08;0.68;;;9.20;99.90;;;;;;5024296;28;20042;-65
2024/01/22 05:13:56;;;;;;;;;;;9.20;99.90;;;;;;5025935;28;20253;-64
2024/01/22 05:16:22;;;;;;;1.50;1.00;;;9.30;99.90;;;;;;5028735;28;20257;-64
2024/01/22 05:18:49;;;;;;;1.00;0.80;;;9.40;99.90;;;;;;5029347;28;20040;-64
2024/01/22 05:21:15;;;;;;;1.95;1.05;;;9.40;99.90;;;;;;5027638;28;20268;-65
2024/01/22 05:23:41;;;;;;;0.90;0.77;;;9.40;99.90;;;;;;5028793;28;20049;-64
2024/01/22 05:26:07;;;;;;;1.10;1.00;;;9.50;99.90;;;;;;5026928;28;20060;-64
2024/01/22 05:28:34;;;;;;;1.42;0.68;;;9.50;99.90;;;;;;5028600;28;20484;-64
2024/01/22 05:31:00;;;;;;;;;;;9.50;99.90;;;;;;5028549;28;20034;-64
2024/01/22 05:33:26;;;;;;;1.20;0.90;;;9.60;99.90;;;;;;5029360;28;19917;-65
2024/01/22 05:35:51;;;;;;;2.88;1.33;;;9.60;99.90;;;;;;5030957;28;20045;-65
2024/01/22 05:38:17;;;;;;;0.67;0.57;;;9.60;99.90;;;;;;5031801;28;20447;-67
2024/01/22 05:40:42;;;;;;;1.97;0.60;;;9.60;99.90;;;;;;5030888;28;20756;-65
2024/01/22 05:43:08;;;;;;;1.37;0.60;;;9.70;99.90;;;;;;5030353;28;20090;-65
2024/01/22 05:45:34;;;;;;;1.80;0.73;;;9.80;99.90;;;;;;5030198;28;20507;-65
2024/01/22 05:47:59;;;;;;;1.17;1.00;;;9.80;99.90;;;;;;5031717;28;20180;-65
2024/01/22 05:50:25;;;;;;;4.20;1.17;;;9.80;99.90;;;;;;5030685;28;20033;-65
2024/01/22 05:52:50;;;;;;;2.53;1.17;;;9.80;99.90;;;;;;5039728;28;20569;-65
2024/01/22 05:55:16;;;;;;;1.03;0.60;;;9.80;99.90;;;;;;5030865;28;21235;-65
2024/01/22 05:57:42;;;;;;;2.63;0.63;;;9.80;99.90;;;;;;5026903;28;20079;-64
2024/01/22 06:00:13;;;;;;;1.67;0.90;;;9.90;99.90;;;;;;5038534;28;20289;-64
2024/01/22 06:02:39;;;;;;;2.05;0.82;;;9.90;99.90;;;;;;5027152;28;20176;-64
2024/01/22 06:05:05;;;;;;;;;;;9.90;99.90;;;;;;5029605;28;20045;-64
2024/01/22 06:07:31;;;;;;;1.25;0.60;;;9.90;99.90;;;;;;5030489;28;19924;-65
2024/01/22 06:09:56;;;;;;;1.33;1.20;;;9.90;99.90;;;;;;5031541;28;20041;-64
2024/01/22 06:12:22;;;;;;;1.10;0.90;;;9.90;99.90;;;;;;5031000;28;20066;-64
2024/01/22 06:14:47;;;;;;;1.73;0.70;;;9.90;99.90;;;;;;5031646;28;20732;-65
2024/01/22 06:17:13;;;;;;;0.87;0.60;;;9.90;99.90;;;;;;5024549;28;20049;-64
2024/01/22 06:19:38;;;;;;;4.47;1.07;;;9.90;99.90;;;;;;5034021;28;20538;-64
2024/01/22 06:22:04;;;;;;;1.70;0.80;;;9.90;99.90;;;;;;5030900;28;20105;-64
2024/01/22 06:24:30;;;;;;;2.47;0.80;;;9.90;99.90;;;;;;5031519;28;20049;-65
2024/01/22 06:26:55;;;;;;;1.42;1.00;;;9.90;99.90;;;;;;5040408;28;20466;-64
2024/01/22 06:29:21;;;;;;;3.07;0.90;;;9.90;99.90;;;;;;5029959;28;20047;-64
2024/01/22 06:31:46;;;;;;;2.07;1.10;;;9.90;99.90;;;;;;5031083;28;20041;-64
2024/01/22 06:34:12;;;;;;;4.40;1.20;;;9.90;99.90;;;;;;5038616;28;20049;-64
2024/01/22 06:36:38;;;;;;;5.43;1.67;;;9.90;99.90;;;;;;5033327;28;20441;-64
2024/01/22 06:39:04;;;;;;;1.52;0.70;;;9.90;99.90;;;;;;5030474;28;20272;-64
2024/01/22 06:41:29;;;;;;;1.63;1.05;;;9.90;99.90;;;;;;5030345;28;20033;-64
2024/01/22 06:43:55;;;;;;;4.03;1.20;;;9.90;99.90;;;;;;5030920;28;20679;-64
2024/01/22 06:46:21;;;;;;;1.47;0.70;;;9.90;99.90;;;;;;5030170;28;20048;-65
2024/01/22 06:48:47;;;;;;;;;;;9.90;99.90;;;;;;5031181;28;20283;-64
2024/01/22 06:51:13;;;;;;;1.90;0.90;;;10.00;99.90;;;;;;5029083;28;20612;-64
2024/01/22 06:53:38;;;;;;;1.17;0.83;;;10.00;99.90;;;;;;5031402;28;20086;-64
2024/01/22 06:56:05;;;;;;;3.50;1.08;;;10.00;99.90;;;;;;5029816;28;20137;-64
2024/01/22 06:58:30;;;;;;;;;;;10.10;99.90;;;;;;5030048;28;20049;-64
2024/01/22 07:00:56;;;;;;;6.40;1.30;;;10.10;99.90;;;;;;5030875;28;19923;-64
2024/01/22 07:03:22;;;;;;;1.53;0.93;;;10.10;99.90;;;;;;5031046;28;20060;-64
2024/01/22 07:05:48;;;;;;;4.82;1.10;;;10.10;99.90;;;;;;5030278;28;20276;-64
2024/01/22 07:08:13;;;;;;;3.78;1.30;;;10.10;99.90;;;;;;5030180;28;20124;-64
2024/01/22 07:10:40;;;;;;;2.70;1.58;;;10.20;99.90;;;;;;5029950;28;20038;-64
2024/01/22 07:13:07;;;;;;;5.38;1.20;;;10.20;99.90;;;;;;5029879;28;20041;-64
2024/01/22 07:15:32;;;;;;;4.15;1.67;;;10.20;99.90;;;;;;5029883;28;20041;-64
2024/01/22 07:17:58;;;;;;;5.88;1.10;;;10.20;99.90;;;;;;5030300;28;20042;-64
2024/01/22 07:20:24;;;;;;;7.95;1.15;;;10.30;99.90;;;;;;5030348;28;20057;-63
2024/01/22 07:22:50;;;;;;;8.35;0.60;;;10.40;99.90;;;;;;5027914;28;20087;-63
2024/01/22 07:25:16;;;;;;;11.68;1.35;;;10.50;99.90;;;;;;5017326;28;20073;-63
2024/01/22 07:27:44;;;;;;;9.40;1.38;;;10.60;99.90;;;;;;5024371;28;20037;-64
2024/01/22 07:30:11;;;;;;;7.55;1.30;;;10.70;99.90;;;;;;5011966;28;20065;-64
2024/01/22 07:32:38;;;;;;;9.05;1.35;;;10.80;99.90;;;;;;5027091;28;20488;-64
2024/01/22 07:35:09;;;;;;;9.90;1.88;;;10.90;99.90;;;;;;5024979;28;20038;-64
2024/01/22 07:37:36;;;;;;;11.55;1.88;;;11.00;99.90;;;;;;5024329;28;20067;-64
2024/01/22 07:40:04;;;;;;;;;;;11.00;99.90;;;;;;5028442;28;20033;-65
2024/01/22 07:42:33;;;;;;;10.15;1.90;;;11.10;99.90;;;;;;5016803;28;19917;-64
2024/01/22 07:44:59;;;;;;;10.75;1.83;;;11.00;99.90;;;;;;5028683;28;20037;-64
2024/01/22 07:47:25;;;;;;;16.00;2.00;;;11.00;99.90;;;;;;5025764;28;20095;-64
2024/01/22 07:49:51;;;;;;;13.32;3.03;;;11.00;99.90;;;;;;5026974;28;20400;-65
2024/01/22 07:52:17;;;;;;;13.57;1.87;;;10.90;99.90;;;;;;5025084;28;20082;-65
2024/01/22 07:54:42;;;;;;;10.20;2.15;;;10.90;99.90;;;;;;5026418;28;20072;-65
2024/01/22 07:57:10;;;;;;;9.83;1.60;;;11.00;99.90;;;;;;5027030;28;20091;-65
2024/01/22 07:59:39;;;;;;;9.85;1.75;;;11.00;99.90;;;;;;5023369;28;20320;-65
2024/01/22 08:02:06;;;;;;;13.38;2.05;;;11.00;99.90;;;;;;5024170;28;20500;-65
2024/01/22 08:04:32;;;;;;;12.48;2.47;;;11.00;99.90;;;;;;5037063;28;20029;-65
2024/01/22 08:07:00;;;;;;;13.38;2.05;;;10.90;99.90;;;;;;5024109;28;20112;-64
2024/01/22 08:09:27;;;;;;;19.67;3.20;;;10.90;99.90;;;;;;5024347;28;20042;-65
2024/01/22 08:11:52;;;;;;;16.45;2.25;;;10.80;99.90;;;;;;5027998;28;20526;-65
2024/01/22 08:14:18;;;;;;;12.18;2.35;;;10.80;99.90;;;;;;5026501;28;20045;-65
2024/01/22 08:16:45;;;;;;;9.80;1.83;;;10.80;99.90;;;;;;5024086;28;20041;-66
2024/01/22 08:19:11;;;;;;;11.05;1.80;;;10.70;99.90;;;;;;5020822;28;20044;-65
2024/01/22 08:21:37;;;;;;;33.70;2.63;;;10.70;99.90;;;;;;5017979;28;20041;-65
2024/01/22 08:24:03;;;;;;;8.47;2.43;;;10.70;99.90;;;;;;5022020;28;20049;-64
2024/01/22 08:26:28;;;;;;;9.52;1.58;;;10.70;99.90;;;;;;5020320;28;20308;-64
2024/01/22 08:28:54;;;;;;;7.63;1.10;;;10.70;99.90;;;;;;5015156;28;20092;-64
2024/01/22 08:31:19;;;;;;;15.50;2.10;;;10.70;99.90;;;;;;5012845;28;20292;-64
2024/01/22 08:33:45;;;;;;;8.45;1.63;;;10.70;99.90;;;;;;5018887;28;20045;-66
2024/01/22 08:36:11;;;;;;;12.43;1.47;;;10.70;99.90;;;;;;5024417;28;20029;-64
2024/01/22 08:38:37;;;;;;;6.18;1.13;;;10.70;99.90;;;;;;5014807;28;20471;-64
2024/01/22 08:41:08;;;;;;;6.53;1.23;;;10.70;99.90;;;;;;5020773;28;20128;-65
2024/01/22 08:43:34;;;;;;;10.88;1.92;;;10.70;99.90;;;;;;5024590;28;20041;-65
2024/01/22 08:45:59;;;;;;;7.47;1.20;;;10.70;99.90;;;;;;5012866;28;20037;-64
2024/01/22 08:48:25;;;;;;;7.43;1.70;;;10.70;99.90;;;;;;5015061;28;20059;-64
2024/01/22 08:50:51;;;;;;;7.22;1.95;;;10.70;99.90;;;;;;5022502;28;20061;-64
2024/01/22 08:53:17;;;;;;;14.60;1.98;;;10.70;99.90;;;;;;5017247;28;20463;-65
2024/01/22 08:55:42;;;;;;;16.17;2.85;;;10.70;99.90;;;;;;5021970;28;20776;-65
2024/01/22 08:58:09;;;;;;;8.93;1.88;;;10.70;99.90;;;;;;5021680;28;20481;-65
2024/01/22 09:00:35;;;;;;;11.57;2.05;;;10.70;99.90;;;;;;5019296;28;20579;-64
2024/01/22 09:03:01;;;;;;;;;;;10.70;99.90;;;;;;5023702;28;20041;-64
2024/01/22 09:05:27;;;;;;;10.35;2.53;;;10.60;99.90;;;;;;5023799;28;20296;-65
2024/01/22 09:07:52;;;;;;;10.60;2.72;;;10.60;99.90;;;;;;5022118;28;20073;-63
2024/01/22 09:10:18;;;;;;;12.27;1.52;;;10.60;99.90;;;;;;5031663;28;20038;-66
2024/01/22 09:12:45;;;;;;;9.80;3.28;;;10.60;99.90;;;;;;5025072;28;20144;-66
2024/01/22 09:15:11;;;;;;;9.18;2.30;;;10.60;99.90;;;;;;5027516;28;20053;-68
2024/01/22 09:17:37;;;;;;;13.13;2.30;;;10.60;99.90;;;;;;5038698;28;20030;-66
2024/01/22 09:20:06;;;;;;;7.93;2.38;;;10.50;99.90;;;;;;5037108;28;20029;-68
2024/01/22 09:22:31;;;;;;;8.68;2.00;;;10.50;99.90;;;;;;5035726;28;20075;-68
2024/01/22 09:24:57;;;;;;;8.63;1.20;;;10.60;99.90;;;;;;5040599;28;20075;-68
2024/01/22 09:27:23;;;;;;;5.40;1.58;;;10.50;99.90;;;;;;5040403;28;20096;-67
2024/01/22 09:29:49;;;;;;;8.77;1.00;;;10.60;99.90;;;;;;5036064;28;20045;-66
2024/01/22 09:32:15;;;;;;;10.67;1.77;;;10.60;99.90;;;;;;5040601;28;20077;-66
2024/01/22 09:34:41;;;;;;;19.27;2.20;;;10.50;99.90;;;;;;5032176;28;20042;-66
2024/01/22 09:37:06;;;;;;;8.60;1.77;;;10.60;99.90;;;;;;5040091;28;20160;-67
2024/01/22 09:39:32;;;;;;;15.50;2.38;;;10.50;99.90;;;;;;5039843;28;20034;-69
2024/01/22 09:41:58;;;;;;;14.90;3.33;;;10.50;99.90;;;;;;5037363;28;20069;-69
2024/01/22 09:44:26;;;;;;;17.40;3.78;;;10.50;99.90;;;;;;5047674;28;20037;-69
2024/01/22 09:46:52;;;;;;;15.25;3.63;;;10.50;99.90;;;;;;5040990;28;20190;-66
2024/01/22 09:49:18;;;;;;;21.98;3.33;;;10.40;99.90;;;;;;5043310;28;20045;-67
2024/01/22 09:51:44;;;;;;;22.92;4.47;;;10.40;99.90;;;;;;5034040;28;20064;-69
2024/01/22 09:54:20;;;;;;;20.77;3.60;;;10.40;99.90;;;;;;5038250;28;20048;-67
2024/01/22 09:56:54;;;;;;;21.08;4.03;;;10.40;99.90;;;;;;5027675;28;20053;-68
2024/01/22 09:59:24;;;;;;;24.25;3.70;;;10.40;99.90;;;;;;5030218;28;20097;-68
2024/01/22 10:01:52;;;;;;;30.48;5.68;;;10.40;99.90;;;;;;5033816;28;20100;-69
2024/01/22 10:04:18;;;;;;;39.80;7.03;;;10.40;99.90;;;;;;5037178;28;20045;-69
2024/01/22 10:06:46;;;;;;;46.28;6.88;;;10.40;99.90;;;;;;5039430;28;20033;-70
2024/01/22 10:09:15;;;;;;;30.92;6.05;;;10.40;99.90;;;;;;5041283;28;20068;-69
2024/01/22 10:32:29;;;;;;;47.58;7.75;;;10.50;99.90;;;;;;5066665;27;1231791;-71
2024/01/22 10:35:39;;;;;;;44.97;6.68;;;10.50;99.90;;;;;;5085540;28;20041;-66
2024/01/22 10:38:09;;;;;;;31.42;7.20;;;10.50;99.90;;;;;;5066692;28;20041;-70
2024/01/22 10:44:16;;;;;;;32.20;6.32;;;10.40;99.90;;;;;;5081640;28;20110;-68
2024/01/22 10:46:42;;;;;;;39.35;6.68;;;10.40;99.90;;;;;;5065090;28;20041;-69
2024/01/22 10:49:09;;;;;;;39.17;7.53;;;10.40;99.90;;;;;;5073554;28;20045;-69
2024/01/22 10:51:37;;;;;;;41.03;8.77;;;10.40;99.90;;;;;;5071272;28;20040;-69
2024/01/22 10:54:03;;;;;;;38.63;7.65;;;10.30;99.90;;;;;;5073194;28;20045;-70
2024/01/22 10:56:34;;;;;;;32.33;6.55;;;10.30;99.90;;;;;;5069182;28;20041;-71
2024/01/22 10:59:12;;;;;;;34.08;7.13;;;10.30;99.90;;;;;;5056391;28;20276;-69
2024/01/22 11:01:38;;;;;;;30.70;6.80;;;10.30;99.90;;;;;;5073196;28;20029;-72
2024/01/22 11:04:04;;;;;;;;;;;10.30;99.90;;;;;;5070001;28;20058;-71
2024/01/22 11:06:36;;;;;;;41.97;7.10;;;10.30;99.90;;;;;;5053932;28;19917;-70
2024/01/22 11:09:05;;;;;;;46.25;9.68;;;10.30;99.90;;;;;;5035886;28;20040;-68
2024/01/22 11:11:33;;;;;;;41.22;8.18;;;10.30;99.90;;;;;;5063863;28;20468;-65
2024/01/22 11:13:59;;;;;;;42.85;8.50;;;10.40;99.90;;;;;;5058541;28;20045;-64
2024/01/22 11:16:25;;;;;;;39.85;7.43;;;10.80;99.90;;;;;;5058456;28;20037;-66
2024/01/22 11:18:58;;;;;;;29.35;6.85;;;11.20;99.90;;;;;;5043666;28;20044;-65
2024/01/22 11:21:37;;;;;;;46.95;8.60;;;11.60;99.90;;;;;;5023841;28;20592;-65
2024/01/22 11:24:10;;;;;;;42.17;7.10;;;11.90;99.90;;;;;;5056043;28;20059;-66
2024/01/22 11:26:42;;;;;;;38.67;7.35;;;12.30;99.90;;;;;;5039455;28;20094;-64
2024/01/22 11:29:09;;;;;;;28.20;5.88;;;12.50;99.90;;;;;;5069949;28;20029;-66
2024/01/22 11:31:35;;;;;;;;;;;12.50;99.90;;;;;;5020198;28;20098;-66
2024/01/22 11:34:04;;;;;;;30.65;5.80;;;12.30;99.90;;;;;;5057697;28;19923;-65
2024/01/22 11:36:49;;;;;;;35.70;7.82;;;12.20;99.90;;;;;;5008384;28;20045;-66
2024/01/22 11:39:41;;;;;;;27.88;5.82;;;12.20;99.90;;;;;;5043689;28;20040;-66
2024/01/22 11:42:16;;;;;;;29.77;7.30;;;12.10;99.90;;;;;;5025547;28;20045;-66
2024/01/22 11:44:48;;;;;;;31.02;6.07;;;12.30;99.90;;;;;;5025399;28;20126;-65
2024/01/22 11:47:14;;;;;;;26.63;5.50;;;12.50;99.90;;;;;;5009334;28;20099;-64
2024/01/22 11:49:41;;;;;;;27.17;6.43;;;12.50;99.90;;;;;;5055629;28;20037;-65
2024/01/22 11:52:34;;;;;;;27.75;5.28;;;12.70;99.90;;;;;;5044912;28;20041;-64
2024/01/22 11:55:02;;;;;;;30.98;6.03;;;13.00;99.90;;;;;;5006295;28;20206;-67
2024/01/22 11:57:35;;;;;;;36.00;5.85;;;12.90;99.90;;;;;;5039711;28;20040;-66
2024/01/22 12:00:06;;;;;;;24.33;5.78;;;12.60;99.90;;;;;;5059353;28;20037;-66
2024/01/22 12:02:33;;;;;;;30.52;6.72;;;12.20;99.90;;;;;;5059657;28;20039;-66
2024/01/22 12:05:09;;;;;;;28.30;6.22;;;11.80;99.90;;;;;;5044544;28;20099;-65
2024/01/22 12:07:40;;;;;;;17.88;4.55;;;11.50;99.90;;;;;;5040160;28;20702;-65
2024/01/22 12:10:22;;;;;;;26.70;4.93;;;11.30;99.90;;;;;;5057382;28;20033;-68
2024/01/22 12:12:56;;;;;;;29.63;5.28;;;11.00;99.90;;;;;;5042590;28;20440;-68
2024/01/22 12:15:24;;;;;;;26.65;3.97;;;10.80;99.90;;;;;;5026320;28;20036;-68
2024/01/22 12:17:50;;;;;;;30.75;5.03;;;10.90;99.90;;;;;;5042530;28;20108;-68
2024/01/22 12:20:18;;;;;;;32.47;4.28;;;11.00;99.90;;;;;;5025707;28;20044;-69
2024/01/22 12:22:43;;;;;;;33.28;4.82;;;11.20;99.90;;;;;;5044841;28;20090;-70
2024/01/22 12:25:12;;;;;;;19.17;3.87;;;11.30;99.90;;;;;;5064064;28;20662;-70
2024/01/22 12:27:38;;;;;;;33.80;5.57;;;11.30;99.90;;;;;;5058990;28;20086;-70
2024/01/22 12:30:14;;;;;;;;;;;11.30;99.90;;;;;;5041316;28;20538;-70
2024/01/22 12:32:52;;;;;;;20.58;4.72;;;11.20;99.90;;;;;;5045112;28;19920;-70
2024/01/22 12:35:22;;;;;;;29.80;5.20;;;11.00;99.90;;;;;;5046792;28;20045;-67
2024/01/22 12:37:48;;;;;;;19.15;3.60;;;10.90;99.90;;;;;;5058485;28;20451;-69
2024/01/22 12:40:16;;;;;;;24.70;4.30;;;10.80;99.90;;;;;;5043700;28;20032;-69
2024/01/22 12:42:48;;;;;;;28.67;5.50;;;10.80;99.90;;;;;;5057366;28;20401;-69
2024/01/22 12:45:23;;;;;;;34.63;5.63;;;10.60;99.90;;;;;;5010165;28;20025;-69
2024/01/22 12:47:48;;;;;;;22.55;3.78;;;10.50;99.90;;;;;;5044504;28;20044;-69
2024/01/22 12:50:17;;;;;;;21.83;4.20;;;10.30;99.90;;;;;;5031881;28;20036;-69
2024/01/22 12:52:44;;;;;;;27.73;5.55;;;10.20;99.90;;;;;;5044288;28;20450;-68
2024/01/22 12:55:11;;;;;;;25.88;3.90;;;10.20;99.90;;;;;;5030512;28;20036;-70
2024/01/22 12:57:37;;;;;;;31.42;5.03;;;10.10;99.90;;;;;;5044986;28;20117;-71
2024/01/22 13:00:05;;;;;;;23.17;4.13;;;10.10;99.90;;;;;;5037492;28;20041;-70
2024/01/22 13:02:31;;;;;;;26.13;5.43;;;10.10;99.90;;;;;;5042247;28;20037;-70
2024/01/22 13:04:56;;;;;;;23.08;4.05;;;10.20;99.90;;;;;;5041862;28;20211;-68
2024/01/22 13:07:22;;;;;;;25.90;5.47;;;10.50;99.90;;;;;;5022417;28;20663;-69
2024/01/22 13:09:48;;;;;;;26.13;4.93;;;10.70;99.90;;;;;;5040315;28;20283;-69
2024/01/22 13:12:13;;;;;;;23.88;4.63;;;11.30;99.90;;;;;;5048261;28;20095;-69
2024/01/22 13:14:39;;;;;;;20.13;4.37;;;12.10;99.90;;;;;;5022993;28;20041;-69